createdAt,value
2018-06-23T08:30:27.235Z,99.99
2018-06-23T08:31:27.202Z,99.99
2018-06-23T08:32:27.195Z,99.99
2018-06-23T08:33:27.180Z,99.99
2018-06-23T08:34:27.144Z,99.99
2018-06-23T08:35:27.125Z,99.10
2018-06-23T08:36:27.112Z,99.90
2018-06-23T08:37:27.106Z,99.99
2018-06-23T08:38:27.079Z,99.99
2018-06-23T08:39:27.068Z,99.99
2018-06-23T08:40:27.038Z,99.99
2018-06-23T08:41:27.023Z,99.99
2018-06-23T08:42:27.023Z,99.99
2018-06-23T08:43:26.989Z,99.99
2018-06-23T08:44:26.984Z,99.99
2018-06-23T08:45:26.955Z,99.99
2018-06-23T08:46:26.940Z,99.99
2018-06-23T08:47:26.926Z,99.99
2018-06-23T08:48:27.383Z,99.99
2018-06-23T08:49:26.897Z,99.99
2018-06-23T08:50:26.896Z,99.99
2018-06-23T08:51:26.860Z,99.99
2018-06-23T08:52:27.840Z,99.99
2018-06-23T08:53:26.849Z,99.99
2018-06-23T08:54:26.808Z,99.99
2018-06-23T08:55:26.792Z,99.99
2018-06-23T08:56:26.780Z,99.99
2018-06-23T08:57:26.766Z,99.99
2018-06-23T08:58:26.745Z,99.99
2018-06-23T08:59:26.739Z,99.99
2018-06-23T09:00:26.711Z,99.99
2018-06-23T09:01:26.697Z,99.99
2018-06-23T09:02:26.684Z,99.99
2018-06-23T09:03:26.665Z,99.99
2018-06-23T09:04:26.655Z,99.99
2018-06-23T09:05:26.634Z,99.99
2018-06-23T09:06:26.627Z,99.99
2018-06-23T09:07:26.601Z,99.99
2018-06-23T09:08:26.610Z,99.99
2018-06-23T09:09:26.591Z,99.99
2018-06-23T09:10:26.575Z,99.99
2018-06-23T09:11:26.538Z,99.99
2018-06-23T09:12:26.524Z,99.99
2018-06-23T09:13:26.511Z,99.99
2018-06-23T09:14:26.508Z,99.99
2018-06-23T09:15:26.481Z,99.99
2018-06-23T09:16:26.452Z,99.99
2018-06-23T09:17:26.437Z,99.99
2018-06-23T09:18:26.424Z,99.99
2018-06-23T09:19:26.408Z,99.99
2018-06-23T09:20:26.404Z,99.99
2018-06-23T09:21:26.602Z,99.99
2018-06-23T09:22:26.361Z,99.99
2018-06-23T09:23:26.344Z,99.99
2018-06-23T09:24:26.331Z,99.99
2018-06-23T09:25:26.333Z,99.99
2018-06-23T09:26:26.299Z,99.99
2018-06-23T09:27:26.280Z,99.99
2018-06-23T09:28:26.272Z,99.99
2018-06-23T09:29:26.247Z,99.99
2018-06-23T09:30:26.232Z,99.99
2018-06-23T09:31:26.228Z,99.99
2018-06-23T09:32:26.199Z,99.99
2018-06-23T09:33:26.185Z,99.99
2018-06-23T09:34:26.222Z,99.99
2018-06-23T09:35:26.151Z,99.99
2018-06-23T09:36:26.172Z,99.99
2018-06-23T09:37:26.128Z,99.99
2018-06-23T09:38:26.106Z,99.99
2018-06-23T09:39:26.089Z,99.99
2018-06-23T09:40:26.084Z,99.99
2018-06-23T09:41:26.071Z,99.99
2018-06-23T09:42:26.042Z,99.99
2018-06-23T09:43:26.025Z,99.99
2018-06-23T09:44:26.015Z,99.99
2018-06-23T09:45:25.997Z,99.99
2018-06-23T09:46:26.002Z,99.99
2018-06-23T09:47:25.966Z,99.99
2018-06-23T09:48:25.953Z,99.99
2018-06-23T09:49:25.936Z,99.99
2018-06-23T09:50:25.918Z,99.99
2018-06-23T09:51:25.907Z,99.99
2018-06-23T09:52:25.899Z,99.99
2018-06-23T09:53:25.878Z,99.99
2018-06-23T09:54:25.862Z,99.99
2018-06-23T09:55:25.844Z,99.99
2018-06-23T09:56:25.836Z,99.99
2018-06-23T09:57:25.841Z,99.99
2018-06-23T09:58:25.801Z,99.99
2018-06-23T09:59:25.785Z,99.10
2018-06-23T10:00:25.774Z,99.99
2018-06-23T10:01:25.756Z,97.61
2018-06-23T10:02:25.740Z,96.85
2018-06-23T10:03:25.744Z,95.31
2018-06-23T10:04:25.710Z,93.88
2018-06-23T10:05:25.697Z,92.05
2018-06-23T10:06:25.683Z,95.84
2018-06-23T10:07:25.672Z,97.71
2018-06-23T10:08:25.676Z,99.29
2018-06-23T10:09:25.638Z,97.28
2018-06-23T10:10:25.636Z,97.38
2018-06-23T10:11:25.618Z,99.10
2018-06-23T10:12:25.597Z,99.05
2018-06-23T10:13:25.594Z,99.99
2018-06-23T10:14:25.575Z,99.99
2018-06-23T10:15:25.607Z,99.99
2018-06-23T10:16:25.540Z,99.99
2018-06-23T10:17:25.526Z,99.99
2018-06-23T10:18:25.521Z,99.99
2018-06-23T10:19:25.496Z,99.99
2018-06-23T10:20:25.480Z,99.99
2018-06-23T10:21:25.514Z,99.99
2018-06-23T10:22:25.456Z,99.99
2018-06-23T10:23:25.452Z,99.99
2018-06-23T10:24:25.436Z,99.99
2018-06-23T10:25:25.421Z,99.99
2018-06-23T10:26:25.394Z,99.99
2018-06-23T10:27:25.385Z,99.99
2018-06-23T10:28:25.360Z,99.99
2018-06-23T10:29:25.355Z,99.99
2018-06-23T10:30:25.329Z,99.99
2018-06-23T10:31:25.318Z,99.99
2018-06-23T10:32:25.298Z,99.99
2018-06-23T10:33:25.281Z,99.99
2018-06-23T10:34:25.301Z,99.99
2018-06-23T10:35:25.253Z,99.99
2018-06-23T10:36:25.235Z,99.99
2018-06-23T10:37:25.220Z,99.99
2018-06-23T10:38:25.224Z,99.99
2018-06-23T10:39:25.192Z,99.99
2018-06-23T10:40:25.186Z,99.99
2018-06-23T10:41:25.158Z,99.99
2018-06-23T10:42:25.141Z,99.99
2018-06-23T10:43:25.126Z,99.99
2018-06-23T10:44:25.110Z,99.99
2018-06-23T10:45:25.106Z,99.99
2018-06-23T10:46:25.085Z,99.99
2018-06-23T10:47:25.069Z,99.99
2018-06-23T10:48:25.047Z,98.72
2018-06-23T10:49:25.037Z,96.42
2018-06-23T10:50:25.027Z,92.05
2018-06-23T10:51:25.000Z,90.61
2018-06-23T10:52:24.985Z,91.67
2018-06-23T10:53:24.974Z,91.62
2018-06-23T10:54:24.959Z,87.35
2018-06-23T10:55:24.953Z,83.84
2018-06-23T10:56:24.931Z,82.49
2018-06-23T10:57:24.910Z,80.22
2018-06-23T10:58:24.896Z,80.28
2018-06-23T10:59:24.883Z,80.05
2018-06-23T11:00:24.867Z,83.85
2018-06-23T11:01:24.876Z,84.48
2018-06-23T11:02:24.839Z,89.80
2018-06-23T11:03:24.824Z,90.19
2018-06-23T11:04:24.812Z,94.74
2018-06-23T11:05:24.846Z,95.79
2018-06-23T11:06:24.804Z,96.13
2018-06-23T11:07:24.778Z,97.38
2018-06-23T11:08:24.753Z,99.99
2018-06-23T11:09:24.739Z,98.62
2018-06-23T11:10:24.727Z,99.10
2018-06-23T11:11:24.708Z,99.38
2018-06-23T11:12:24.708Z,99.99
2018-06-23T11:13:24.681Z,99.99
2018-06-23T11:14:24.669Z,98.52
2018-06-23T11:15:24.650Z,97.09
2018-06-23T11:16:24.640Z,97.18
2018-06-23T11:17:24.632Z,97.09
2018-06-23T11:18:24.610Z,96.99
2018-06-23T11:19:24.593Z,96.61
2018-06-23T11:20:24.579Z,96.51
2018-06-23T11:21:24.562Z,97.09
2018-06-23T11:22:24.555Z,98.14
2018-06-23T11:23:24.531Z,99.29
2018-06-23T11:24:24.561Z,99.77
2018-06-23T11:25:24.505Z,98.33
2018-06-23T11:26:24.490Z,97.95
2018-06-23T11:27:24.492Z,98.47
2018-06-23T11:28:24.456Z,99.29
2018-06-23T11:29:24.443Z,98.33
2018-06-23T11:30:24.428Z,97.09
2018-06-23T11:31:24.412Z,96.22
2018-06-23T11:32:24.394Z,94.84
2018-06-23T11:33:24.390Z,93.40
2018-06-23T11:34:24.366Z,93.06
2018-06-23T11:35:24.359Z,90.71
2018-06-23T11:36:24.348Z,90.86
2018-06-23T11:37:24.325Z,92.63
2018-06-23T11:38:24.315Z,88.41
2018-06-23T11:39:24.305Z,86.93
2018-06-23T11:40:24.278Z,86.01
2018-06-23T11:41:24.272Z,87.78
2018-06-23T11:42:24.254Z,84.19
2018-06-23T11:43:24.236Z,85.05
2018-06-23T11:44:24.220Z,85.15
2018-06-23T11:45:24.218Z,87.21
2018-06-23T11:46:24.190Z,90.76
2018-06-23T11:47:24.180Z,90.52
2018-06-23T11:48:24.167Z,88.22
2018-06-23T11:49:24.150Z,88.89
2018-06-23T11:50:24.151Z,88.89
2018-06-23T11:51:24.124Z,88.08
2018-06-23T11:52:24.201Z,90.19
2018-06-23T11:53:24.099Z,91.43
2018-06-23T11:54:24.077Z,90.53
2018-06-23T11:55:24.077Z,91.77
2018-06-23T11:56:24.052Z,93.30
2018-06-23T11:57:24.037Z,96.08
2018-06-23T11:58:24.022Z,93.49
2018-06-23T11:59:24.008Z,93.98
2018-06-23T12:00:23.997Z,93.69
2018-06-23T12:01:23.986Z,93.11
2018-06-23T12:02:23.965Z,92.73
2018-06-23T12:03:23.949Z,91.63
2018-06-23T12:04:23.935Z,90.91
2018-06-23T12:05:23.933Z,91.91
2018-06-23T12:06:23.914Z,91.05
2018-06-23T12:07:23.898Z,90.90
2018-06-23T12:08:23.877Z,89.37
2018-06-23T12:09:23.862Z,88.79
2018-06-23T12:10:23.865Z,87.74
2018-06-23T12:11:23.884Z,89.08
2018-06-23T12:12:24.340Z,88.37
2018-06-23T12:13:23.890Z,89.47
2018-06-23T12:14:23.792Z,89.37
2018-06-23T12:15:23.777Z,91.00
2018-06-23T12:16:23.782Z,92.30
2018-06-23T12:17:23.752Z,92.39
2018-06-23T12:18:23.736Z,93.88
2018-06-23T12:19:23.719Z,94.79
2018-06-23T12:20:23.705Z,93.35
2018-06-23T12:21:23.694Z,93.44
2018-06-23T12:22:23.693Z,92.97
2018-06-23T12:23:23.666Z,92.10
2018-06-23T12:24:23.648Z,91.24
2018-06-23T12:25:23.676Z,92.97
2018-06-23T12:26:23.630Z,92.82
2018-06-23T12:27:23.649Z,90.71
2018-06-23T12:28:23.589Z,89.85
2018-06-23T12:29:23.588Z,89.03
2018-06-23T12:30:23.587Z,91.62
2018-06-23T12:31:23.552Z,88.84
2018-06-23T12:32:23.536Z,87.68
2018-06-23T12:33:23.544Z,86.29
2018-06-23T12:34:23.570Z,85.52
2018-06-23T12:35:23.499Z,84.95
2018-06-23T12:36:23.487Z,84.33
2018-06-23T12:37:23.471Z,85.28
2018-06-23T12:38:23.474Z,85.96
2018-06-23T12:39:23.444Z,86.44
2018-06-23T12:40:23.433Z,85.91
2018-06-23T12:41:23.466Z,85.04
2018-06-23T12:42:23.405Z,83.31
2018-06-23T12:43:23.402Z,84.61
2018-06-23T12:44:23.381Z,87.11
2018-06-23T12:45:23.365Z,86.78
2018-06-23T12:46:23.352Z,89.04
2018-06-23T12:47:23.354Z,91.38
2018-06-23T12:48:23.395Z,90.52
2018-06-23T12:49:23.312Z,89.65
2018-06-23T12:50:23.297Z,87.93
2018-06-23T12:51:23.316Z,87.01
2018-06-23T12:52:23.273Z,86.19
2018-06-23T12:53:23.421Z,81.57
2018-06-23T12:54:23.262Z,77.42
2018-06-23T12:55:23.233Z,76.21
2018-06-23T12:56:23.218Z,75.02
2018-06-23T12:57:23.261Z,74.98
2018-06-23T12:58:23.311Z,75.04
2018-06-23T12:59:23.177Z,77.88
2018-06-23T13:00:23.168Z,80.86
2018-06-23T13:01:23.169Z,78.94
2018-06-23T13:02:23.145Z,80.38
2018-06-23T13:03:23.158Z,79.71
2018-06-23T13:04:23.142Z,78.17
2018-06-23T13:05:23.127Z,77.92
2018-06-23T13:06:23.106Z,79.75
2018-06-23T13:07:23.077Z,79.75
2018-06-23T13:08:23.080Z,78.23
2018-06-23T13:09:23.068Z,78.32
2018-06-23T13:10:23.043Z,78.77
2018-06-23T13:11:23.035Z,78.99
2018-06-23T13:12:23.019Z,78.45
2018-06-23T13:13:23.038Z,78.67
2018-06-23T13:14:23.025Z,80.24
2018-06-23T13:15:22.979Z,79.36
2018-06-23T13:16:22.963Z,78.40
2018-06-23T13:17:22.952Z,77.06
2018-06-23T13:18:22.949Z,78.45
2018-06-23T13:19:22.927Z,77.53
2018-06-23T13:20:22.920Z,77.31
2018-06-23T13:21:22.904Z,75.90
2018-06-23T13:22:22.909Z,74.02
2018-06-23T13:23:22.891Z,73.25
2018-06-23T13:24:22.871Z,72.32
2018-06-23T13:25:22.856Z,74.65
2018-06-23T13:26:22.860Z,75.81
2018-06-23T13:27:22.884Z,74.94
2018-06-23T13:28:22.827Z,73.86
2018-06-23T13:29:22.808Z,71.43
2018-06-23T13:30:22.800Z,68.57
2018-06-23T13:31:22.792Z,69.28
2018-06-23T13:32:22.812Z,70.21
2018-06-23T13:33:22.769Z,71.59
2018-06-23T13:34:22.748Z,71.61
2018-06-23T13:35:22.737Z,71.87
2018-06-23T13:36:22.724Z,71.52
2018-06-23T13:37:22.718Z,71.39
2018-06-23T13:38:22.717Z,72.00
2018-06-23T13:39:22.701Z,71.81
2018-06-23T13:40:22.684Z,72.09
2018-06-23T13:41:22.696Z,71.96
2018-06-23T13:42:22.665Z,74.08
2018-06-23T13:43:23.447Z,73.06
2018-06-23T13:44:22.639Z,72.22
2018-06-23T13:45:22.642Z,74.39
2018-06-23T13:46:22.674Z,75.87
2018-06-23T13:47:22.604Z,74.79
2018-06-23T13:48:22.952Z,72.29
2018-06-23T13:49:22.583Z,72.29
2018-06-23T13:50:22.568Z,73.81
2018-06-23T13:51:22.583Z,74.85
2018-06-23T13:52:22.564Z,74.96
2018-06-23T13:53:22.569Z,75.73
2018-06-23T13:54:22.606Z,74.55
2018-06-23T13:55:22.512Z,74.75
2018-06-23T13:56:22.501Z,73.54
2018-06-23T13:57:22.494Z,73.79
2018-06-23T13:58:22.964Z,74.65
2018-06-23T13:59:23.450Z,74.81
2018-06-23T14:00:22.458Z,76.25
2018-06-23T14:01:22.443Z,75.84
2018-06-23T14:02:22.434Z,74.44
2018-06-23T14:03:22.499Z,72.52
2018-06-23T14:04:22.410Z,71.81
2018-06-23T14:05:22.400Z,72.54
2018-06-23T14:06:22.389Z,71.84
2018-06-23T14:07:22.378Z,69.47
2018-06-23T14:08:22.376Z,70.40
2018-06-23T14:09:22.371Z,68.64
2018-06-23T14:10:22.347Z,67.81
2018-06-23T14:11:22.330Z,66.65
2018-06-23T14:12:22.322Z,66.71
2018-06-23T14:13:22.321Z,66.01
2018-06-23T14:14:22.303Z,63.73
2018-06-23T14:15:22.290Z,62.89
2018-06-23T14:16:22.326Z,62.31
2018-06-23T14:17:22.285Z,62.93
2018-06-23T14:18:22.277Z,66.42
2018-06-23T14:19:22.257Z,67.90
2018-06-23T14:20:22.246Z,68.32
2018-06-23T14:21:22.237Z,65.98
2018-06-23T14:22:22.245Z,65.40
2018-06-23T14:23:22.224Z,64.53
2018-06-23T14:24:22.204Z,65.33
2018-06-23T14:25:22.213Z,63.44
2018-06-23T14:26:22.192Z,64.08
2018-06-23T14:27:22.190Z,64.43
2018-06-23T14:28:22.181Z,65.30
2018-06-23T14:29:22.162Z,65.94
2018-06-23T14:30:22.158Z,66.91
2018-06-23T14:31:22.291Z,67.83
2018-06-23T14:32:22.273Z,67.71
2018-06-23T14:33:22.138Z,67.71
2018-06-23T14:34:22.123Z,68.44
2018-06-23T14:35:22.118Z,71.16
2018-06-23T14:36:22.100Z,74.17
2018-06-23T14:37:22.096Z,74.85
2018-06-23T14:38:22.106Z,74.08
2018-06-23T14:39:22.076Z,74.23
2018-06-23T14:40:22.073Z,76.02
2018-06-23T14:41:22.060Z,77.26
2018-06-23T14:42:22.049Z,78.03
2018-06-23T14:43:22.051Z,77.11
2018-06-23T14:44:22.029Z,76.54
2018-06-23T14:45:22.020Z,76.54
2018-06-23T14:46:22.009Z,76.64
2018-06-23T14:47:22.000Z,76.09
2018-06-23T14:48:21.999Z,76.67
2018-06-23T14:49:21.988Z,76.19
2018-06-23T14:50:21.967Z,73.63
2018-06-23T14:51:21.955Z,69.85
2018-06-23T14:52:21.944Z,69.60
2018-06-23T14:53:21.946Z,67.81
2018-06-23T14:54:21.922Z,66.11
2018-06-23T14:55:21.912Z,62.79
2018-06-23T14:56:21.913Z,61.44
2018-06-23T14:57:21.899Z,64.40
2018-06-23T14:58:21.894Z,63.47
2018-06-23T14:59:21.879Z,60.89
2018-06-23T15:00:21.862Z,61.57
2018-06-23T15:01:21.855Z,62.22
2018-06-23T15:02:21.850Z,61.61
2018-06-23T15:03:21.852Z,63.18
2018-06-23T15:04:21.832Z,63.06
2018-06-23T15:05:21.819Z,63.50
2018-06-23T15:06:21.813Z,62.54
2018-06-23T15:07:21.839Z,62.12
2018-06-23T15:08:21.811Z,61.54
2018-06-23T15:09:21.793Z,64.56
2018-06-23T15:10:21.783Z,67.51
2018-06-23T15:11:21.778Z,70.07
2018-06-23T15:12:21.768Z,70.90
2018-06-23T15:13:21.772Z,71.81
2018-06-23T15:14:21.760Z,69.95
2018-06-23T15:15:21.741Z,68.51
2018-06-23T15:16:21.738Z,69.63
2018-06-23T15:17:21.729Z,71.39
2018-06-23T15:18:21.729Z,73.98
2018-06-23T15:19:21.714Z,72.64
2018-06-23T15:20:21.700Z,72.83
2018-06-23T15:21:21.692Z,73.60
2018-06-23T15:22:21.684Z,72.92
2018-06-23T15:23:21.695Z,74.13
2018-06-23T15:24:21.664Z,75.87
2018-06-23T15:25:21.656Z,76.09
2018-06-23T15:26:21.648Z,76.15
2018-06-23T15:27:21.635Z,76.09
2018-06-23T15:28:21.629Z,76.57
2018-06-23T15:29:21.963Z,77.59
2018-06-23T15:30:21.605Z,79.96
2018-06-23T15:31:21.594Z,81.93
2018-06-23T15:32:21.589Z,83.18
2018-06-23T15:33:21.574Z,83.94
2018-06-23T15:34:21.574Z,83.23
2018-06-23T15:35:21.550Z,84.09
2018-06-23T15:36:21.548Z,84.09
2018-06-23T15:37:21.527Z,83.14
2018-06-23T15:38:21.516Z,84.95
2018-06-23T15:39:21.517Z,85.25
2018-06-23T15:40:21.494Z,86.01
2018-06-23T15:41:21.481Z,85.53
2018-06-23T15:42:21.466Z,86.78
2018-06-23T15:43:21.463Z,87.26
2018-06-23T15:44:21.454Z,88.65
2018-06-23T15:45:21.431Z,88.12
2018-06-23T15:46:21.420Z,87.55
2018-06-23T15:47:21.407Z,86.68
2018-06-23T15:48:21.396Z,86.78
2018-06-23T15:49:21.395Z,86.30
2018-06-23T15:50:21.366Z,85.05
2018-06-23T15:51:21.352Z,84.58
2018-06-23T15:52:21.336Z,84.58
2018-06-23T15:53:21.334Z,84.77
2018-06-23T15:54:21.325Z,86.68
2018-06-23T15:55:21.299Z,85.34
2018-06-23T15:56:21.287Z,84.71
2018-06-23T15:57:21.271Z,82.51
2018-06-23T15:58:21.260Z,82.31
2018-06-23T15:59:21.261Z,81.74
2018-06-23T16:00:21.237Z,81.87
2018-06-23T16:01:21.220Z,79.96
2018-06-23T16:02:21.205Z,78.99
2018-06-23T16:03:21.191Z,77.25
2018-06-23T16:04:21.210Z,77.98
2018-06-23T16:05:21.164Z,78.32
2018-06-23T16:06:21.150Z,78.13
2018-06-23T16:07:21.140Z,79.19
2018-06-23T16:08:21.126Z,77.34
2018-06-23T16:09:21.128Z,73.92
2018-06-23T16:10:21.097Z,72.58
2018-06-23T16:11:21.088Z,71.55
2018-06-23T16:12:21.073Z,73.19
2018-06-23T16:13:21.061Z,72.52
2018-06-23T16:14:21.061Z,70.62
2018-06-23T16:15:21.041Z,71.17
2018-06-23T16:16:21.024Z,72.16
2018-06-23T16:17:21.011Z,74.71
2018-06-23T16:18:21.001Z,75.82
2018-06-23T16:19:21.001Z,76.73
2018-06-23T16:20:20.978Z,76.73
2018-06-23T16:21:20.967Z,76.88
2018-06-23T16:22:20.949Z,76.82
2018-06-23T16:23:20.944Z,75.81
2018-06-23T16:24:20.943Z,75.56
2018-06-23T16:25:20.922Z,75.62
2018-06-23T16:26:20.904Z,76.29
2018-06-23T16:27:20.891Z,76.15
2018-06-23T16:28:20.881Z,77.01
2018-06-23T16:29:20.903Z,76.34
2018-06-23T16:30:20.935Z,76.73
2018-06-23T16:31:20.845Z,75.62
2018-06-23T16:32:20.835Z,75.81
2018-06-23T16:33:20.821Z,76.25
2018-06-23T16:34:20.824Z,76.50
2018-06-23T16:35:21.092Z,78.47
2018-06-23T16:36:20.787Z,78.70
2018-06-23T16:37:20.774Z,79.44
2018-06-23T16:38:20.764Z,79.72
2018-06-23T16:39:20.765Z,80.63
2018-06-23T16:40:20.739Z,80.11
2018-06-23T16:41:20.726Z,81.20
2018-06-23T16:42:20.715Z,80.30
2018-06-23T16:43:20.697Z,79.76
2018-06-23T16:44:20.697Z,78.90
2018-06-23T16:45:20.680Z,80.15
2018-06-23T16:46:20.664Z,80.82
2018-06-23T16:47:20.648Z,79.57
2018-06-23T16:48:20.633Z,80.01
2018-06-23T16:49:20.640Z,80.05
2018-06-23T16:50:20.611Z,80.68
2018-06-23T16:51:20.601Z,79.91
2018-06-23T16:52:20.584Z,80.01
2018-06-23T16:53:20.570Z,79.14
2018-06-23T16:54:20.572Z,79.72
2018-06-23T16:55:20.545Z,80.87
2018-06-23T16:56:20.532Z,81.26
2018-06-23T16:57:20.520Z,82.07
2018-06-23T16:58:20.505Z,80.43
2018-06-23T16:59:20.508Z,81.07
2018-06-23T17:00:20.480Z,81.93
2018-06-23T17:01:20.466Z,80.68
2018-06-23T17:02:20.453Z,81.35
2018-06-23T17:03:20.438Z,81.45
2018-06-23T17:04:20.483Z,80.24
2018-06-23T17:05:20.412Z,81.10
2018-06-23T17:06:20.404Z,80.15
2018-06-23T17:07:20.389Z,77.73
2018-06-23T17:08:20.372Z,72.36
2018-06-23T17:09:20.373Z,68.87
2018-06-23T17:10:20.348Z,67.74
2018-06-23T17:11:20.346Z,66.33
2018-06-23T17:12:20.320Z,65.27
2018-06-23T17:13:20.307Z,63.95
2018-06-23T17:14:20.315Z,63.53
2018-06-23T17:15:20.322Z,62.41
2018-06-23T17:16:20.276Z,62.34
2018-06-23T17:17:20.265Z,62.86
2018-06-23T17:18:20.251Z,61.86
2018-06-23T17:19:20.254Z,61.25
2018-06-23T17:20:20.236Z,62.57
2018-06-23T17:21:20.227Z,62.57
2018-06-23T17:22:20.218Z,64.66
2018-06-23T17:23:20.208Z,64.05
2018-06-23T17:24:20.210Z,61.99
2018-06-23T17:25:20.192Z,62.83
2018-06-23T17:26:20.182Z,64.86
2018-06-23T17:27:20.176Z,64.66
2018-06-23T17:28:20.175Z,64.28
2018-06-23T17:29:20.170Z,65.59
2018-06-23T17:30:20.153Z,67.03
2018-06-23T17:31:20.137Z,70.62
2018-06-23T17:32:20.135Z,73.02
2018-06-23T17:33:20.124Z,75.20
2018-06-23T17:34:20.130Z,75.87
2018-06-23T17:35:20.107Z,76.31
2018-06-23T17:36:20.103Z,77.26
2018-06-23T17:37:20.086Z,77.31
2018-06-23T17:38:20.103Z,73.67
2018-06-23T17:39:20.093Z,69.67
2018-06-23T17:40:20.066Z,68.00
2018-06-23T17:41:20.052Z,67.10
2018-06-23T17:42:20.042Z,66.46
2018-06-23T17:43:20.027Z,66.42
2018-06-23T17:44:20.032Z,68.26
2018-06-23T17:45:20.013Z,66.39
2018-06-23T17:46:20.004Z,65.91
2018-06-23T17:47:19.995Z,64.47
2018-06-23T17:48:19.994Z,65.30
2018-06-23T17:49:19.990Z,65.11
2018-06-23T17:50:19.969Z,67.49
2018-06-23T17:51:19.961Z,67.29
2018-06-23T17:52:19.955Z,67.23
2018-06-23T17:53:19.948Z,65.81
2018-06-23T17:54:19.945Z,65.14
2018-06-23T17:55:19.925Z,65.37
2018-06-23T17:56:19.918Z,63.82
2018-06-23T17:57:19.975Z,62.60
2018-06-23T17:58:19.903Z,63.21
2018-06-23T17:59:19.905Z,64.76
2018-06-23T18:00:19.885Z,66.39
2018-06-23T18:01:19.875Z,68.03
2018-06-23T18:02:19.863Z,68.51
2018-06-23T18:03:19.863Z,68.60
2018-06-23T18:04:19.880Z,68.60
2018-06-23T18:05:19.845Z,71.23
2018-06-23T18:06:19.853Z,72.38
2018-06-23T18:07:19.823Z,73.88
2018-06-23T18:08:19.808Z,74.37
2018-06-23T18:09:19.816Z,75.57
2018-06-23T18:10:19.794Z,75.67
2018-06-23T18:11:19.782Z,76.06
2018-06-23T18:12:19.842Z,77.56
2018-06-23T18:13:19.766Z,77.75
2018-06-23T18:14:19.769Z,78.52
2018-06-23T18:15:19.746Z,78.99
2018-06-23T18:16:19.733Z,79.09
2018-06-23T18:17:19.723Z,79.63
2018-06-23T18:18:20.057Z,80.78
2018-06-23T18:19:19.743Z,81.59
2018-06-23T18:20:19.780Z,82.93
2018-06-23T18:21:19.676Z,82.70
2018-06-23T18:22:19.666Z,82.60
2018-06-23T18:23:19.654Z,83.18
2018-06-23T18:24:19.641Z,83.65
2018-06-23T18:25:19.704Z,82.45
2018-06-23T18:26:19.621Z,82.26
2018-06-23T18:27:19.606Z,81.30
2018-06-23T18:28:19.595Z,81.82
2018-06-23T18:29:19.579Z,82.40
2018-06-23T18:30:19.581Z,80.76
2018-06-23T18:31:19.558Z,81.97
2018-06-23T18:32:19.544Z,80.82
2018-06-23T18:33:19.534Z,81.78
2018-06-23T18:34:19.517Z,82.93
2018-06-23T18:35:19.519Z,82.35
2018-06-23T18:36:19.494Z,82.54
2018-06-23T18:37:19.486Z,83.03
2018-06-23T18:38:19.494Z,83.27
2018-06-23T18:39:20.451Z,84.14
2018-06-23T18:40:19.455Z,84.23
2018-06-23T18:41:19.427Z,85.77
2018-06-23T18:42:19.416Z,86.05
2018-06-23T18:43:19.410Z,85.67
2018-06-23T18:44:19.390Z,86.34
2018-06-23T18:45:19.393Z,86.34
2018-06-23T18:46:19.364Z,86.63
2018-06-23T18:47:19.353Z,86.72
2018-06-23T18:48:19.339Z,87.68
2018-06-23T18:49:19.322Z,87.49
2018-06-23T18:50:19.323Z,86.82
2018-06-23T18:51:19.305Z,87.11
2018-06-23T18:52:19.281Z,87.84
2018-06-23T18:53:19.269Z,88.31
2018-06-23T18:54:19.256Z,88.22
2018-06-23T18:55:19.254Z,89.37
2018-06-23T18:56:19.234Z,90.14
2018-06-23T18:57:19.310Z,90.71
2018-06-23T18:58:19.203Z,90.61
2018-06-23T18:59:19.191Z,90.33
2018-06-23T19:00:19.192Z,94.07
2018-06-23T19:01:19.160Z,94.17
2018-06-23T19:02:19.145Z,94.07
2018-06-23T19:03:19.136Z,94.54
2018-06-23T19:04:19.116Z,93.68
2018-06-23T19:05:19.173Z,93.78
2018-06-23T19:06:19.090Z,94.79
2018-06-23T19:07:19.079Z,93.93
2018-06-23T19:08:19.059Z,93.54
2018-06-23T19:09:19.161Z,94.21
2018-06-23T19:10:19.041Z,94.40
2018-06-23T19:11:19.016Z,94.89
2018-06-23T19:12:19.003Z,94.98
2018-06-23T19:13:18.998Z,94.59
2018-06-23T19:14:18.975Z,95.07
2018-06-23T19:15:18.974Z,94.98
2018-06-23T19:16:18.946Z,95.56
2018-06-23T19:17:19.005Z,96.03
2018-06-23T19:18:18.914Z,96.51
2018-06-23T19:19:18.902Z,96.61
2018-06-23T19:20:18.965Z,97.56
2018-06-23T19:21:18.873Z,98.52
2018-06-23T19:22:18.862Z,98.47
2018-06-23T19:23:18.843Z,99.05
2018-06-23T19:24:18.837Z,99.43
2018-06-23T19:25:18.825Z,99.99
2018-06-23T19:26:18.800Z,99.99
2018-06-23T19:27:18.785Z,99.99
2018-06-23T19:28:18.768Z,99.99
2018-06-23T19:29:18.756Z,99.99
2018-06-23T19:30:18.760Z,99.99
2018-06-23T19:31:18.731Z,99.99
2018-06-23T19:32:18.713Z,99.99
2018-06-23T19:33:18.696Z,99.99
2018-06-23T19:34:18.690Z,99.99
2018-06-23T19:35:18.681Z,99.99
2018-06-23T19:36:18.652Z,99.99
2018-06-23T19:37:18.631Z,99.99
2018-06-23T19:38:18.637Z,99.99
2018-06-23T19:39:18.606Z,99.99
2018-06-23T19:40:18.617Z,99.99
2018-06-23T19:41:18.578Z,99.99
2018-06-23T19:42:18.558Z,99.99
2018-06-23T19:43:18.547Z,99.99
2018-06-23T19:44:18.594Z,99.99
2018-06-23T19:45:18.533Z,99.99
2018-06-23T19:46:18.502Z,99.99
2018-06-23T19:47:18.484Z,99.99
2018-06-23T19:48:18.469Z,99.99
2018-06-23T19:49:18.459Z,99.99
2018-06-23T19:50:18.448Z,99.99
2018-06-23T19:51:18.426Z,99.99
2018-06-23T19:52:18.407Z,99.99
2018-06-23T19:53:18.395Z,99.99
2018-06-23T19:54:18.377Z,99.99
2018-06-23T19:55:18.374Z,99.99
2018-06-23T19:56:18.353Z,99.99
2018-06-23T19:57:18.325Z,99.99
2018-06-23T19:58:18.311Z,99.99
2018-06-23T19:59:18.298Z,99.99
2018-06-23T20:00:18.293Z,99.99
2018-06-23T20:01:18.268Z,99.99
2018-06-23T20:02:18.252Z,99.99
2018-06-23T20:03:18.237Z,99.99
2018-06-23T20:04:18.241Z,99.99
2018-06-23T20:05:18.219Z,99.99
2018-06-23T20:06:18.191Z,99.99
2018-06-23T20:07:18.175Z,99.99
2018-06-23T20:08:18.221Z,99.99
2018-06-23T20:09:18.150Z,99.99
2018-06-23T20:10:18.138Z,99.99
2018-06-23T20:11:18.113Z,99.99
2018-06-23T20:12:18.095Z,99.99
2018-06-23T20:13:18.083Z,99.99
2018-06-23T20:14:18.063Z,99.99
2018-06-23T20:15:18.055Z,99.99
2018-06-23T20:16:18.030Z,99.99
2018-06-23T20:17:18.013Z,99.99
2018-06-23T20:18:17.998Z,99.99
2018-06-23T20:19:17.989Z,99.99
2018-06-23T20:20:17.986Z,99.99
2018-06-23T20:21:17.951Z,99.99
2018-06-23T20:22:18.004Z,99.99
2018-06-23T20:23:17.917Z,99.99
2018-06-23T20:24:17.904Z,99.99
2018-06-23T20:25:17.898Z,99.99
2018-06-23T20:26:17.867Z,99.99
2018-06-23T20:27:17.853Z,99.99
2018-06-23T20:28:17.839Z,99.99
2018-06-23T20:29:17.825Z,99.99
2018-06-23T20:30:17.815Z,99.99
2018-06-23T20:31:17.787Z,99.99
2018-06-23T20:32:17.771Z,99.99
2018-06-23T20:33:17.758Z,99.99
2018-06-23T20:34:17.740Z,99.99
2018-06-23T20:35:17.738Z,99.99
2018-06-23T20:36:17.707Z,99.99
2018-06-23T20:37:17.690Z,99.99
2018-06-23T20:38:17.678Z,99.99
2018-06-23T20:39:17.662Z,99.99
2018-06-23T20:40:17.651Z,99.99
2018-06-23T20:41:17.623Z,99.99
2018-06-23T20:42:17.607Z,99.99
2018-06-23T20:43:17.590Z,99.99
2018-06-23T20:44:17.572Z,99.99
2018-06-23T20:45:17.575Z,99.99
2018-06-23T20:46:17.541Z,99.99
2018-06-23T20:47:17.551Z,99.99
2018-06-23T20:48:17.508Z,99.99
2018-06-23T20:49:17.492Z,99.99
2018-06-23T20:50:17.487Z,99.99
2018-06-23T20:51:17.454Z,99.99
2018-06-23T20:52:17.445Z,99.99
2018-06-23T20:53:17.428Z,99.99
2018-06-23T20:54:17.414Z,99.99
2018-06-23T20:55:17.408Z,99.99
2018-06-23T20:56:17.403Z,99.99
2018-06-23T20:57:17.362Z,99.99
2018-06-23T20:58:17.343Z,99.99
2018-06-23T20:59:17.325Z,99.99
2018-06-23T21:00:17.320Z,99.99
2018-06-23T21:01:17.382Z,99.99
2018-06-23T21:02:17.284Z,99.99
2018-06-23T21:03:17.258Z,99.99
2018-06-23T21:04:17.246Z,99.99
2018-06-23T21:05:17.237Z,99.99
2018-06-23T21:06:17.211Z,99.99
2018-06-23T21:07:17.240Z,99.99
2018-06-23T21:08:17.174Z,99.99
2018-06-23T21:09:17.158Z,99.99
2018-06-23T21:10:17.175Z,99.99
2018-06-23T21:11:17.136Z,99.99
2018-06-23T21:12:17.107Z,99.99
2018-06-23T21:13:17.092Z,99.99
2018-06-23T21:14:17.076Z,99.99
2018-06-23T21:15:17.075Z,99.99
2018-06-23T21:16:17.041Z,99.99
2018-06-23T21:17:17.025Z,99.99
2018-06-23T21:18:17.006Z,99.99
2018-06-23T21:19:16.987Z,99.99
2018-06-23T21:20:16.984Z,99.99
2018-06-23T21:21:16.955Z,99.99
2018-06-23T21:22:16.940Z,99.99